sensor_id;sensor_type;location;lat;lon;timestamp;P1;durP1;ratioP1;P2;durP2;ratioP2
59300;SDS011;45073;52.740;6.784;2023-04-25T00:01:36;15.30;;;3.15;;
59300;SDS011;45073;52.740;6.784;2023-04-25T00:04:02;13.18;;;3.30;;
59300;SDS011;45073;52.740;6.784;2023-04-25T00:06:30;10.55;;;2.72;;
59300;SDS011;45073;52.740;6.784;2023-04-25T00:08:57;11.68;;;2.88;;
59300;SDS011;45073;52.740;6.784;2023-04-25T00:11:23;11.73;;;3.03;;
59300;SDS011;45073;52.740;6.784;2023-04-25T00:13:49;11.27;;;3.30;;
59300;SDS011;45073;52.740;6.784;2023-04-25T00:16:15;20.00;;;3.10;;
59300;SDS011;45073;52.740;6.784;2023-04-25T00:18:42;14.93;;;3.13;;
59300;SDS011;45073;52.740;6.784;2023-04-25T00:21:08;13.43;;;2.80;;
59300;SDS011;45073;52.740;6.784;2023-04-25T00:23:33;15.60;;;3.17;;
59300;SDS011;45073;52.740;6.784;2023-04-25T00:26:01;10.70;;;2.97;;
59300;SDS011;45073;52.740;6.784;2023-04-25T00:28:27;15.43;;;2.92;;
59300;SDS011;45073;52.740;6.784;2023-04-25T00:30:53;15.57;;;3.53;;
59300;SDS011;45073;52.740;6.784;2023-04-25T00:33:18;13.57;;;2.95;;
59300;SDS011;45073;52.740;6.784;2023-04-25T00:35:44;21.70;;;3.45;;
59300;SDS011;45073;52.740;6.784;2023-04-25T00:38:09;18.35;;;3.60;;
59300;SDS011;45073;52.740;6.784;2023-04-25T00:40:35;13.63;;;3.15;;
59300;SDS011;45073;52.740;6.784;2023-04-25T00:43:01;16.02;;;3.15;;
59300;SDS011;45073;52.740;6.784;2023-04-25T00:45:29;12.63;;;2.60;;
59300;SDS011;45073;52.740;6.784;2023-04-25T00:47:55;11.85;;;2.55;;
59300;SDS011;45073;52.740;6.784;2023-04-25T00:50:21;10.57;;;2.80;;
59300;SDS011;45073;52.740;6.784;2023-04-25T00:52:50;12.95;;;2.50;;
59300;SDS011;45073;52.740;6.784;2023-04-25T00:55:16;10.98;;;2.17;;
59300;SDS011;45073;52.740;6.784;2023-04-25T00:57:42;17.05;;;2.92;;
59300;SDS011;45073;52.740;6.784;2023-04-25T01:00:08;13.02;;;3.45;;
59300;SDS011;45073;52.740;6.784;2023-04-25T01:02:35;13.10;;;2.67;;
59300;SDS011;45073;52.740;6.784;2023-04-25T01:05:01;12.60;;;3.08;;
59300;SDS011;45073;52.740;6.784;2023-04-25T01:07:28;12.77;;;2.70;;
59300;SDS011;45073;52.740;6.784;2023-04-25T01:09:54;13.50;;;2.55;;
59300;SDS011;45073;52.740;6.784;2023-04-25T01:12:20;15.88;;;3.53;;
59300;SDS011;45073;52.740;6.784;2023-04-25T01:14:46;9.80;;;2.72;;
59300;SDS011;45073;52.740;6.784;2023-04-25T01:17:12;10.45;;;2.95;;
59300;SDS011;45073;52.740;6.784;2023-04-25T01:19:38;14.00;;;3.47;;
59300;SDS011;45073;52.740;6.784;2023-04-25T01:22:04;16.08;;;3.00;;
59300;SDS011;45073;52.740;6.784;2023-04-25T01:24:33;12.70;;;2.92;;
59300;SDS011;45073;52.740;6.784;2023-04-25T01:27:00;18.88;;;3.60;;
59300;SDS011;45073;52.740;6.784;2023-04-25T01:29:26;16.08;;;3.63;;
59300;SDS011;45073;52.740;6.784;2023-04-25T01:31:52;13.30;;;3.30;;
59300;SDS011;45073;52.740;6.784;2023-04-25T01:34:18;10.45;;;3.90;;
59300;SDS011;45073;52.740;6.784;2023-04-25T01:36:44;11.85;;;3.72;;
59300;SDS011;45073;52.740;6.784;2023-04-25T01:39:11;16.13;;;3.08;;
59300;SDS011;45073;52.740;6.784;2023-04-25T01:41:36;14.60;;;2.75;;
59300;SDS011;45073;52.740;6.784;2023-04-25T01:44:02;16.02;;;3.05;;
59300;SDS011;45073;52.740;6.784;2023-04-25T01:46:28;16.13;;;2.70;;
59300;SDS011;45073;52.740;6.784;2023-04-25T01:48:54;11.52;;;2.75;;
59300;SDS011;45073;52.740;6.784;2023-04-25T01:51:19;11.50;;;2.90;;
59300;SDS011;45073;52.740;6.784;2023-04-25T01:53:45;13.15;;;2.63;;
59300;SDS011;45073;52.740;6.784;2023-04-25T01:56:11;13.82;;;2.80;;
59300;SDS011;45073;52.740;6.784;2023-04-25T01:58:36;10.50;;;2.38;;
59300;SDS011;45073;52.740;6.784;2023-04-25T02:01:02;15.30;;;3.45;;
59300;SDS011;45073;52.740;6.784;2023-04-25T02:03:28;11.32;;;3.72;;
59300;SDS011;45073;52.740;6.784;2023-04-25T02:05:56;9.25;;;2.47;;
59300;SDS011;45073;52.740;6.784;2023-04-25T02:08:21;10.75;;;2.63;;
59300;SDS011;45073;52.740;6.784;2023-04-25T02:10:47;11.07;;;2.40;;
59300;SDS011;45073;52.740;6.784;2023-04-25T02:13:13;14.98;;;3.95;;
59300;SDS011;45073;52.740;6.784;2023-04-25T02:15:38;18.95;;;3.45;;
59300;SDS011;45073;52.740;6.784;2023-04-25T02:18:04;12.77;;;2.83;;
59300;SDS011;45073;52.740;6.784;2023-04-25T02:20:31;14.55;;;3.30;;
59300;SDS011;45073;52.740;6.784;2023-04-25T02:22:56;15.25;;;3.42;;
59300;SDS011;45073;52.740;6.784;2023-04-25T02:25:22;13.43;;;2.88;;
59300;SDS011;45073;52.740;6.784;2023-04-25T02:27:48;11.88;;;2.47;;
59300;SDS011;45073;52.740;6.784;2023-04-25T02:30:14;12.77;;;2.90;;
59300;SDS011;45073;52.740;6.784;2023-04-25T02:32:40;13.65;;;2.38;;
59300;SDS011;45073;52.740;6.784;2023-04-25T02:35:06;16.40;;;3.30;;
59300;SDS011;45073;52.740;6.784;2023-04-25T02:37:32;15.50;;;2.85;;
59300;SDS011;45073;52.740;6.784;2023-04-25T02:39:59;13.30;;;3.13;;
59300;SDS011;45073;52.740;6.784;2023-04-25T02:42:25;17.23;;;3.72;;
59300;SDS011;45073;52.740;6.784;2023-04-25T02:44:51;11.48;;;2.70;;
59300;SDS011;45073;52.740;6.784;2023-04-25T02:47:17;12.13;;;2.92;;
59300;SDS011;45073;52.740;6.784;2023-04-25T02:49:43;11.45;;;2.72;;
59300;SDS011;45073;52.740;6.784;2023-04-25T02:52:10;13.25;;;2.50;;
59300;SDS011;45073;52.740;6.784;2023-04-25T02:54:36;14.65;;;3.42;;
59300;SDS011;45073;52.740;6.784;2023-04-25T02:57:01;9.30;;;2.30;;
59300;SDS011;45073;52.740;6.784;2023-04-25T02:59:27;12.32;;;2.30;;
59300;SDS011;45073;52.740;6.784;2023-04-25T03:01:53;15.13;;;2.97;;
59300;SDS011;45073;52.740;6.784;2023-04-25T03:04:19;14.50;;;2.95;;
59300;SDS011;45073;52.740;6.784;2023-04-25T03:06:45;12.52;;;2.40;;
59300;SDS011;45073;52.740;6.784;2023-04-25T03:09:11;15.07;;;3.08;;
59300;SDS011;45073;52.740;6.784;2023-04-25T03:11:38;13.27;;;3.03;;
59300;SDS011;45073;52.740;6.784;2023-04-25T03:14:03;11.35;;;3.08;;
59300;SDS011;45073;52.740;6.784;2023-04-25T03:16:29;8.73;;;1.75;;
59300;SDS011;45073;52.740;6.784;2023-04-25T03:18:55;13.98;;;2.38;;
59300;SDS011;45073;52.740;6.784;2023-04-25T03:21:21;14.55;;;2.78;;
59300;SDS011;45073;52.740;6.784;2023-04-25T03:23:47;14.82;;;2.60;;
59300;SDS011;45073;52.740;6.784;2023-04-25T03:26:13;9.50;;;1.67;;
59300;SDS011;45073;52.740;6.784;2023-04-25T03:28:38;12.48;;;2.85;;
59300;SDS011;45073;52.740;6.784;2023-04-25T03:31:05;14.00;;;2.28;;
59300;SDS011;45073;52.740;6.784;2023-04-25T03:33:31;14.15;;;1.85;;
59300;SDS011;45073;52.740;6.784;2023-04-25T03:35:56;14.82;;;2.65;;
59300;SDS011;45073;52.740;6.784;2023-04-25T03:38:22;11.73;;;2.20;;
59300;SDS011;45073;52.740;6.784;2023-04-25T03:40:48;16.00;;;2.88;;
59300;SDS011;45073;52.740;6.784;2023-04-25T03:43:15;16.05;;;2.65;;
59300;SDS011;45073;52.740;6.784;2023-04-25T03:45:41;12.35;;;2.83;;
59300;SDS011;45073;52.740;6.784;2023-04-25T03:48:06;10.02;;;1.80;;
59300;SDS011;45073;52.740;6.784;2023-04-25T03:50:32;12.40;;;1.90;;
59300;SDS011;45073;52.740;6.784;2023-04-25T03:52:58;9.35;;;1.70;;
59300;SDS011;45073;52.740;6.784;2023-04-25T03:55:23;14.43;;;2.75;;
59300;SDS011;45073;52.740;6.784;2023-04-25T03:57:49;15.25;;;2.50;;
59300;SDS011;45073;52.740;6.784;2023-04-25T04:00:15;11.30;;;1.90;;
59300;SDS011;45073;52.740;6.784;2023-04-25T04:02:40;11.35;;;2.10;;
59300;SDS011;45073;52.740;6.784;2023-04-25T04:05:06;10.02;;;1.63;;
59300;SDS011;45073;52.740;6.784;2023-04-25T04:07:32;8.77;;;1.73;;
59300;SDS011;45073;52.740;6.784;2023-04-25T04:09:58;9.98;;;2.17;;
59300;SDS011;45073;52.740;6.784;2023-04-25T04:12:24;9.65;;;2.33;;
59300;SDS011;45073;52.740;6.784;2023-04-25T04:14:50;12.18;;;1.83;;
59300;SDS011;45073;52.740;6.784;2023-04-25T04:17:15;14.48;;;1.98;;
59300;SDS011;45073;52.740;6.784;2023-04-25T04:19:41;6.47;;;1.83;;
59300;SDS011;45073;52.740;6.784;2023-04-25T04:22:06;6.45;;;1.40;;
59300;SDS011;45073;52.740;6.784;2023-04-25T04:24:32;6.30;;;1.35;;
59300;SDS011;45073;52.740;6.784;2023-04-25T04:26:58;7.72;;;1.65;;
59300;SDS011;45073;52.740;6.784;2023-04-25T04:29:24;7.70;;;1.50;;
59300;SDS011;45073;52.740;6.784;2023-04-25T04:31:50;7.05;;;1.33;;
59300;SDS011;45073;52.740;6.784;2023-04-25T04:34:17;11.63;;;2.28;;
59300;SDS011;45073;52.740;6.784;2023-04-25T04:36:43;5.82;;;1.42;;
59300;SDS011;45073;52.740;6.784;2023-04-25T04:39:11;7.60;;;1.48;;
59300;SDS011;45073;52.740;6.784;2023-04-25T04:41:37;10.23;;;2.42;;
59300;SDS011;45073;52.740;6.784;2023-04-25T04:44:03;6.45;;;1.20;;
59300;SDS011;45073;52.740;6.784;2023-04-25T04:46:31;4.50;;;1.00;;
59300;SDS011;45073;52.740;6.784;2023-04-25T04:49:03;4.82;;;1.20;;
59300;SDS011;45073;52.740;6.784;2023-04-25T04:51:30;5.57;;;1.17;;
59300;SDS011;45073;52.740;6.784;2023-04-25T04:53:56;5.45;;;1.35;;
59300;SDS011;45073;52.740;6.784;2023-04-25T04:56:23;4.53;;;1.30;;
59300;SDS011;45073;52.740;6.784;2023-04-25T04:58:50;8.52;;;1.50;;
59300;SDS011;45073;52.740;6.784;2023-04-25T05:01:17;6.78;;;1.33;;
59300;SDS011;45073;52.740;6.784;2023-04-25T05:03:43;7.38;;;1.77;;
59300;SDS011;45073;52.740;6.784;2023-04-25T05:06:08;8.93;;;1.50;;
59300;SDS011;45073;52.740;6.784;2023-04-25T05:08:34;8.05;;;1.35;;
59300;SDS011;45073;52.740;6.784;2023-04-25T05:11:01;8.05;;;1.60;;
59300;SDS011;45073;52.740;6.784;2023-04-25T05:13:27;6.65;;;1.30;;
59300;SDS011;45073;52.740;6.784;2023-04-25T05:15:52;6.70;;;1.30;;
59300;SDS011;45073;52.740;6.784;2023-04-25T05:18:18;10.30;;;1.60;;
59300;SDS011;45073;52.740;6.784;2023-04-25T05:20:43;9.43;;;1.60;;
59300;SDS011;45073;52.740;6.784;2023-04-25T05:23:09;8.85;;;1.55;;
59300;SDS011;45073;52.740;6.784;2023-04-25T05:25:35;9.43;;;1.35;;
59300;SDS011;45073;52.740;6.784;2023-04-25T05:28:00;6.60;;;1.60;;
59300;SDS011;45073;52.740;6.784;2023-04-25T05:30:26;8.70;;;1.48;;
59300;SDS011;45073;52.740;6.784;2023-04-25T05:32:51;12.65;;;1.92;;
59300;SDS011;45073;52.740;6.784;2023-04-25T05:35:17;11.13;;;1.88;;
59300;SDS011;45073;52.740;6.784;2023-04-25T05:37:43;12.40;;;1.58;;
59300;SDS011;45073;52.740;6.784;2023-04-25T05:40:08;7.25;;;2.00;;
59300;SDS011;45073;52.740;6.784;2023-04-25T05:42:34;4.47;;;1.20;;
59300;SDS011;45073;52.740;6.784;2023-04-25T05:45:00;10.82;;;1.92;;
59300;SDS011;45073;52.740;6.784;2023-04-25T05:47:26;8.68;;;1.63;;
59300;SDS011;45073;52.740;6.784;2023-04-25T05:49:51;5.60;;;1.60;;
59300;SDS011;45073;52.740;6.784;2023-04-25T05:52:17;13.27;;;1.80;;
59300;SDS011;45073;52.740;6.784;2023-04-25T05:54:42;7.47;;;1.35;;
59300;SDS011;45073;52.740;6.784;2023-04-25T05:57:08;7.20;;;1.50;;
59300;SDS011;45073;52.740;6.784;2023-04-25T05:59:34;7.93;;;1.48;;
59300;SDS011;45073;52.740;6.784;2023-04-25T06:01:59;15.10;;;1.88;;
59300;SDS011;45073;52.740;6.784;2023-04-25T06:04:25;7.03;;;1.77;;
59300;SDS011;45073;52.740;6.784;2023-04-25T06:06:51;9.10;;;2.05;;
59300;SDS011;45073;52.740;6.784;2023-04-25T06:09:16;9.80;;;1.80;;
59300;SDS011;45073;52.740;6.784;2023-04-25T06:11:42;7.70;;;1.50;;
59300;SDS011;45073;52.740;6.784;2023-04-25T06:14:08;9.32;;;2.45;;
59300;SDS011;45073;52.740;6.784;2023-04-25T06:16:33;11.07;;;1.75;;
59300;SDS011;45073;52.740;6.784;2023-04-25T06:18:59;11.50;;;1.92;;
59300;SDS011;45073;52.740;6.784;2023-04-25T06:21:24;9.65;;;1.70;;
59300;SDS011;45073;52.740;6.784;2023-04-25T06:23:50;14.15;;;2.25;;
59300;SDS011;45073;52.740;6.784;2023-04-25T06:26:16;9.30;;;1.73;;
59300;SDS011;45073;52.740;6.784;2023-04-25T06:28:42;10.88;;;2.30;;
59300;SDS011;45073;52.740;6.784;2023-04-25T06:31:07;15.18;;;2.00;;
59300;SDS011;45073;52.740;6.784;2023-04-25T06:33:33;7.35;;;1.58;;
59300;SDS011;45073;52.740;6.784;2023-04-25T06:35:58;7.80;;;1.27;;
59300;SDS011;45073;52.740;6.784;2023-04-25T06:38:24;6.10;;;1.40;;
59300;SDS011;45073;52.740;6.784;2023-04-25T06:40:50;10.95;;;1.70;;
59300;SDS011;45073;52.740;6.784;2023-04-25T06:43:16;6.43;;;1.52;;
59300;SDS011;45073;52.740;6.784;2023-04-25T06:45:41;9.68;;;1.30;;
59300;SDS011;45073;52.740;6.784;2023-04-25T06:48:07;8.30;;;1.48;;
59300;SDS011;45073;52.740;6.784;2023-04-25T06:50:33;10.15;;;1.45;;
59300;SDS011;45073;52.740;6.784;2023-04-25T06:52:59;11.50;;;1.58;;
59300;SDS011;45073;52.740;6.784;2023-04-25T06:55:26;7.60;;;1.30;;
59300;SDS011;45073;52.740;6.784;2023-04-25T06:57:52;10.40;;;1.67;;
59300;SDS011;45073;52.740;6.784;2023-04-25T07:00:18;10.95;;;2.05;;
59300;SDS011;45073;52.740;6.784;2023-04-25T07:02:43;4.85;;;1.10;;
59300;SDS011;45073;52.740;6.784;2023-04-25T07:05:09;8.48;;;1.80;;
59300;SDS011;45073;52.740;6.784;2023-04-25T07:07:35;7.50;;;1.42;;
59300;SDS011;45073;52.740;6.784;2023-04-25T07:10:01;7.05;;;1.30;;
59300;SDS011;45073;52.740;6.784;2023-04-25T07:12:26;11.52;;;1.42;;
59300;SDS011;45073;52.740;6.784;2023-04-25T07:14:52;9.25;;;1.85;;
59300;SDS011;45073;52.740;6.784;2023-04-25T07:17:18;10.10;;;1.42;;
59300;SDS011;45073;52.740;6.784;2023-04-25T07:19:43;8.98;;;1.27;;
59300;SDS011;45073;52.740;6.784;2023-04-25T07:22:09;11.52;;;1.80;;
59300;SDS011;45073;52.740;6.784;2023-04-25T07:24:35;8.90;;;1.30;;
59300;SDS011;45073;52.740;6.784;2023-04-25T07:27:00;6.63;;;1.50;;
59300;SDS011;45073;52.740;6.784;2023-04-25T07:29:27;9.13;;;1.73;;
59300;SDS011;45073;52.740;6.784;2023-04-25T07:31:53;14.70;;;1.55;;
59300;SDS011;45073;52.740;6.784;2023-04-25T07:34:19;12.27;;;2.97;;
59300;SDS011;45073;52.740;6.784;2023-04-25T07:36:44;11.20;;;1.63;;
59300;SDS011;45073;52.740;6.784;2023-04-25T07:39:10;9.52;;;1.70;;
59300;SDS011;45073;52.740;6.784;2023-04-25T07:41:36;5.75;;;1.40;;
59300;SDS011;45073;52.740;6.784;2023-04-25T07:44:02;10.07;;;1.48;;
59300;SDS011;45073;52.740;6.784;2023-04-25T07:46:27;12.85;;;1.98;;
59300;SDS011;45073;52.740;6.784;2023-04-25T07:48:53;8.27;;;1.48;;
59300;SDS011;45073;52.740;6.784;2023-04-25T07:51:18;9.45;;;1.65;;
59300;SDS011;45073;52.740;6.784;2023-04-25T07:53:45;8.35;;;1.63;;
59300;SDS011;45073;52.740;6.784;2023-04-25T07:56:11;6.85;;;1.40;;
59300;SDS011;45073;52.740;6.784;2023-04-25T07:58:37;6.80;;;1.38;;
59300;SDS011;45073;52.740;6.784;2023-04-25T08:01:02;7.40;;;1.42;;
59300;SDS011;45073;52.740;6.784;2023-04-25T08:03:28;4.40;;;1.08;;
59300;SDS011;45073;52.740;6.784;2023-04-25T08:05:54;5.75;;;1.40;;
59300;SDS011;45073;52.740;6.784;2023-04-25T08:08:19;7.50;;;1.20;;
59300;SDS011;45073;52.740;6.784;2023-04-25T08:10:45;5.88;;;1.05;;
59300;SDS011;45073;52.740;6.784;2023-04-25T08:13:13;8.90;;;1.95;;
59300;SDS011;45073;52.740;6.784;2023-04-25T08:15:38;15.93;;;1.52;;
59300;SDS011;45073;52.740;6.784;2023-04-25T08:18:04;8.93;;;1.50;;
59300;SDS011;45073;52.740;6.784;2023-04-25T08:20:30;7.18;;;1.25;;
59300;SDS011;45073;52.740;6.784;2023-04-25T08:22:56;8.77;;;1.63;;
59300;SDS011;45073;52.740;6.784;2023-04-25T08:25:21;6.30;;;1.45;;
59300;SDS011;45073;52.740;6.784;2023-04-25T08:27:47;19.27;;;2.10;;
59300;SDS011;45073;52.740;6.784;2023-04-25T08:30:12;9.88;;;1.90;;
59300;SDS011;45073;52.740;6.784;2023-04-25T08:32:38;8.13;;;1.40;;
59300;SDS011;45073;52.740;6.784;2023-04-25T08:35:04;8.10;;;1.58;;
59300;SDS011;45073;52.740;6.784;2023-04-25T08:37:30;6.35;;;0.90;;
59300;SDS011;45073;52.740;6.784;2023-04-25T08:39:56;7.53;;;1.13;;
59300;SDS011;45073;52.740;6.784;2023-04-25T08:42:21;5.95;;;1.35;;
59300;SDS011;45073;52.740;6.784;2023-04-25T08:44:48;6.38;;;0.93;;
59300;SDS011;45073;52.740;6.784;2023-04-25T08:47:14;4.30;;;1.30;;
59300;SDS011;45073;52.740;6.784;2023-04-25T08:49:42;6.10;;;0.95;;
59300;SDS011;45073;52.740;6.784;2023-04-25T08:52:11;10.30;;;2.33;;
59300;SDS011;45073;52.740;6.784;2023-04-25T08:54:39;6.18;;;1.38;;
59300;SDS011;45073;52.740;6.784;2023-04-25T08:57:09;6.45;;;1.63;;
59300;SDS011;45073;52.740;6.784;2023-04-25T08:59:35;8.10;;;1.23;;
59300;SDS011;45073;52.740;6.784;2023-04-25T09:02:03;10.05;;;1.40;;
59300;SDS011;45073;52.740;6.784;2023-04-25T09:04:31;12.00;;;1.55;;
59300;SDS011;45073;52.740;6.784;2023-04-25T09:06:57;10.32;;;1.45;;
59300;SDS011;45073;52.740;6.784;2023-04-25T09:09:23;9.95;;;1.50;;
59300;SDS011;45073;52.740;6.784;2023-04-25T09:11:49;3.97;;;0.90;;
59300;SDS011;45073;52.740;6.784;2023-04-25T09:14:19;5.75;;;1.30;;
59300;SDS011;45073;52.740;6.784;2023-04-25T09:19:21;8.45;;;1.55;;
59300;SDS011;45073;52.740;6.784;2023-04-25T09:21:54;8.35;;;1.80;;
59300;SDS011;45073;52.740;6.784;2023-04-25T09:46:40;4.85;;;1.05;;
59300;SDS011;45073;52.740;6.784;2023-04-25T10:08:49;2.67;;;0.60;;
59300;SDS011;45073;52.740;6.784;2023-04-25T10:14:38;2.65;;;0.77;;
59300;SDS011;45073;52.740;6.784;2023-04-25T10:20:27;4.35;;;1.00;;
59300;SDS011;45073;52.740;6.784;2023-04-25T10:23:13;7.72;;;2.08;;
59300;SDS011;45073;52.740;6.784;2023-04-25T10:26:16;7.78;;;1.85;;
59300;SDS011;45073;52.740;6.784;2023-04-25T10:35:36;4.68;;;0.80;;
59300;SDS011;45073;52.740;6.784;2023-04-25T10:41:31;2.95;;;0.80;;
59300;SDS011;45073;52.740;6.784;2023-04-25T10:48:28;4.78;;;1.00;;
59300;SDS011;45073;52.740;6.784;2023-04-25T11:07:44;4.97;;;0.98;;
59300;SDS011;45073;52.740;6.784;2023-04-25T11:14:14;7.40;;;1.08;;
59300;SDS011;45073;52.740;6.784;2023-04-25T11:20:58;8.27;;;1.42;;
59300;SDS011;45073;52.740;6.784;2023-04-25T11:23:24;7.55;;;1.20;;
59300;SDS011;45073;52.740;6.784;2023-04-25T11:25:51;7.43;;;1.48;;
59300;SDS011;45073;52.740;6.784;2023-04-25T11:28:20;10.30;;;1.55;;
59300;SDS011;45073;52.740;6.784;2023-04-25T11:30:49;8.43;;;1.83;;
59300;SDS011;45073;52.740;6.784;2023-04-25T11:33:15;7.40;;;1.60;;
59300;SDS011;45073;52.740;6.784;2023-04-25T11:35:41;11.05;;;1.45;;
59300;SDS011;45073;52.740;6.784;2023-04-25T11:38:07;9.90;;;1.40;;
59300;SDS011;45073;52.740;6.784;2023-04-25T11:40:33;7.88;;;1.33;;
59300;SDS011;45073;52.740;6.784;2023-04-25T11:43:00;7.50;;;1.48;;
59300;SDS011;45073;52.740;6.784;2023-04-25T11:45:26;7.32;;;1.45;;
59300;SDS011;45073;52.740;6.784;2023-04-25T11:47:53;8.88;;;1.60;;
59300;SDS011;45073;52.740;6.784;2023-04-25T11:50:19;8.48;;;1.50;;
59300;SDS011;45073;52.740;6.784;2023-04-25T11:52:45;9.38;;;1.38;;
59300;SDS011;45073;52.740;6.784;2023-04-25T11:55:13;6.65;;;1.33;;
59300;SDS011;45073;52.740;6.784;2023-04-25T11:57:39;10.32;;;1.65;;
59300;SDS011;45073;52.740;6.784;2023-04-25T12:02:34;10.70;;;1.90;;
59300;SDS011;45073;52.740;6.784;2023-04-25T12:05:01;9.15;;;1.23;;
59300;SDS011;45073;52.740;6.784;2023-04-25T12:07:31;6.00;;;0.90;;
59300;SDS011;45073;52.740;6.784;2023-04-25T12:09:56;6.22;;;1.20;;
59300;SDS011;45073;52.740;6.784;2023-04-25T12:12:26;6.10;;;1.38;;
59300;SDS011;45073;52.740;6.784;2023-04-25T12:14:52;8.00;;;1.20;;
59300;SDS011;45073;52.740;6.784;2023-04-25T12:17:20;8.32;;;1.40;;
59300;SDS011;45073;52.740;6.784;2023-04-25T12:19:47;8.45;;;1.33;;
59300;SDS011;45073;52.740;6.784;2023-04-25T12:22:20;9.32;;;1.52;;
59300;SDS011;45073;52.740;6.784;2023-04-25T12:24:46;8.13;;;1.60;;
59300;SDS011;45073;52.740;6.784;2023-04-25T12:27:14;7.30;;;1.23;;
59300;SDS011;45073;52.740;6.784;2023-04-25T12:29:53;6.28;;;0.95;;
59300;SDS011;45073;52.740;6.784;2023-04-25T12:32:20;8.38;;;1.50;;
59300;SDS011;45073;52.740;6.784;2023-04-25T12:34:46;8.73;;;1.40;;
59300;SDS011;45073;52.740;6.784;2023-04-25T12:37:12;4.30;;;1.10;;
59300;SDS011;45073;52.740;6.784;2023-04-25T12:39:37;32.67;;;4.55;;
59300;SDS011;45073;52.740;6.784;2023-04-25T12:42:03;7.32;;;1.38;;
59300;SDS011;45073;52.740;6.784;2023-04-25T12:44:29;7.65;;;1.25;;
59300;SDS011;45073;52.740;6.784;2023-04-25T12:46:54;5.85;;;1.42;;
59300;SDS011;45073;52.740;6.784;2023-04-25T12:49:20;3.80;;;1.42;;
59300;SDS011;45073;52.740;6.784;2023-04-25T12:51:46;5.05;;;1.33;;
59300;SDS011;45073;52.740;6.784;2023-04-25T12:54:12;10.25;;;1.98;;
59300;SDS011;45073;52.740;6.784;2023-04-25T12:56:39;7.63;;;1.27;;
59300;SDS011;45073;52.740;6.784;2023-04-25T12:59:06;4.18;;;1.05;;
59300;SDS011;45073;52.740;6.784;2023-04-25T13:01:32;7.15;;;1.50;;
59300;SDS011;45073;52.740;6.784;2023-04-25T13:03:58;9.05;;;1.85;;
59300;SDS011;45073;52.740;6.784;2023-04-25T13:06:23;7.57;;;1.63;;
59300;SDS011;45073;52.740;6.784;2023-04-25T13:08:49;10.30;;;1.45;;
59300;SDS011;45073;52.740;6.784;2023-04-25T13:11:15;6.82;;;1.60;;
59300;SDS011;45073;52.740;6.784;2023-04-25T13:13:41;2.08;;;0.70;;
59300;SDS011;45073;52.740;6.784;2023-04-25T13:16:07;9.05;;;1.90;;
59300;SDS011;45073;52.740;6.784;2023-04-25T13:18:33;8.35;;;1.70;;
59300;SDS011;45073;52.740;6.784;2023-04-25T13:20:59;6.00;;;1.30;;
59300;SDS011;45073;52.740;6.784;2023-04-25T13:23:25;5.07;;;1.15;;
59300;SDS011;45073;52.740;6.784;2023-04-25T13:25:52;7.35;;;1.60;;
59300;SDS011;45073;52.740;6.784;2023-04-25T13:28:18;4.80;;;1.00;;
59300;SDS011;45073;52.740;6.784;2023-04-25T13:30:44;5.43;;;1.23;;
59300;SDS011;45073;52.740;6.784;2023-04-25T13:33:10;6.18;;;1.10;;
59300;SDS011;45073;52.740;6.784;2023-04-25T13:35:36;9.80;;;2.33;;
59300;SDS011;45073;52.740;6.784;2023-04-25T13:38:03;8.95;;;1.85;;
59300;SDS011;45073;52.740;6.784;2023-04-25T13:40:29;8.30;;;2.08;;
59300;SDS011;45073;52.740;6.784;2023-04-25T13:42:55;6.72;;;1.52;;
59300;SDS011;45073;52.740;6.784;2023-04-25T13:45:21;9.48;;;2.28;;
59300;SDS011;45073;52.740;6.784;2023-04-25T13:47:47;4.25;;;1.00;;
59300;SDS011;45073;52.740;6.784;2023-04-25T13:50:12;6.15;;;1.33;;
59300;SDS011;45073;52.740;6.784;2023-04-25T13:52:39;5.88;;;1.30;;
59300;SDS011;45073;52.740;6.784;2023-04-25T13:55:05;6.15;;;1.13;;
59300;SDS011;45073;52.740;6.784;2023-04-25T13:57:32;5.50;;;1.30;;
59300;SDS011;45073;52.740;6.784;2023-04-25T13:59:59;4.80;;;0.98;;
59300;SDS011;45073;52.740;6.784;2023-04-25T14:02:24;7.07;;;1.10;;
59300;SDS011;45073;52.740;6.784;2023-04-25T14:04:51;5.85;;;1.38;;
59300;SDS011;45073;52.740;6.784;2023-04-25T14:07:16;7.07;;;1.63;;
59300;SDS011;45073;52.740;6.784;2023-04-25T14:09:44;7.65;;;1.30;;
59300;SDS011;45073;52.740;6.784;2023-04-25T14:12:09;10.93;;;2.35;;
59300;SDS011;45073;52.740;6.784;2023-04-25T14:14:36;4.80;;;1.30;;
59300;SDS011;45073;52.740;6.784;2023-04-25T14:17:02;6.05;;;0.90;;
59300;SDS011;45073;52.740;6.784;2023-04-25T14:19:28;6.10;;;1.23;;
59300;SDS011;45073;52.740;6.784;2023-04-25T14:21:54;6.45;;;1.20;;
59300;SDS011;45073;52.740;6.784;2023-04-25T14:24:20;4.50;;;1.10;;
59300;SDS011;45073;52.740;6.784;2023-04-25T14:26:46;7.32;;;2.00;;
59300;SDS011;45073;52.740;6.784;2023-04-25T14:29:11;8.25;;;1.75;;
59300;SDS011;45073;52.740;6.784;2023-04-25T14:31:37;9.75;;;2.00;;
59300;SDS011;45073;52.740;6.784;2023-04-25T14:34:04;5.38;;;1.05;;
59300;SDS011;45073;52.740;6.784;2023-04-25T14:36:30;7.80;;;1.35;;
59300;SDS011;45073;52.740;6.784;2023-04-25T14:38:57;9.50;;;2.17;;
59300;SDS011;45073;52.740;6.784;2023-04-25T14:41:24;8.88;;;1.90;;
59300;SDS011;45073;52.740;6.784;2023-04-25T14:43:49;7.30;;;1.45;;
59300;SDS011;45073;52.740;6.784;2023-04-25T14:46:15;8.57;;;1.42;;
59300;SDS011;45073;52.740;6.784;2023-04-25T14:48:41;8.20;;;1.85;;
59300;SDS011;45073;52.740;6.784;2023-04-25T14:51:07;5.45;;;1.10;;
59300;SDS011;45073;52.740;6.784;2023-04-25T14:53:33;6.80;;;1.60;;
59300;SDS011;45073;52.740;6.784;2023-04-25T14:55:58;6.72;;;1.40;;
59300;SDS011;45073;52.740;6.784;2023-04-25T14:58:24;8.57;;;1.50;;
59300;SDS011;45073;52.740;6.784;2023-04-25T15:00:50;6.70;;;1.70;;
59300;SDS011;45073;52.740;6.784;2023-04-25T15:03:16;8.48;;;1.65;;
59300;SDS011;45073;52.740;6.784;2023-04-25T15:05:42;8.48;;;2.15;;
59300;SDS011;45073;52.740;6.784;2023-04-25T15:08:08;6.63;;;1.60;;
59300;SDS011;45073;52.740;6.784;2023-04-25T15:10:35;7.20;;;1.58;;
59300;SDS011;45073;52.740;6.784;2023-04-25T15:13:01;9.30;;;1.70;;
59300;SDS011;45073;52.740;6.784;2023-04-25T15:15:27;8.82;;;2.00;;
59300;SDS011;45073;52.740;6.784;2023-04-25T15:17:53;6.97;;;1.38;;
59300;SDS011;45073;52.740;6.784;2023-04-25T15:20:20;10.98;;;2.58;;
59300;SDS011;45073;52.740;6.784;2023-04-25T15:22:46;6.78;;;1.58;;
59300;SDS011;45073;52.740;6.784;2023-04-25T15:25:13;8.13;;;1.45;;
59300;SDS011;45073;52.740;6.784;2023-04-25T15:27:40;5.53;;;1.52;;
59300;SDS011;45073;52.740;6.784;2023-04-25T15:30:09;8.25;;;1.73;;
59300;SDS011;45073;52.740;6.784;2023-04-25T15:32:42;10.50;;;1.67;;
59300;SDS011;45073;52.740;6.784;2023-04-25T15:35:08;9.75;;;1.40;;
59300;SDS011;45073;52.740;6.784;2023-04-25T15:37:34;10.05;;;1.88;;
59300;SDS011;45073;52.740;6.784;2023-04-25T15:40:10;7.32;;;1.23;;
59300;SDS011;45073;52.740;6.784;2023-04-25T15:42:50;6.60;;;1.50;;
59300;SDS011;45073;52.740;6.784;2023-04-25T15:45:16;8.05;;;1.45;;
59300;SDS011;45073;52.740;6.784;2023-04-25T15:47:53;9.38;;;1.38;;
59300;SDS011;45073;52.740;6.784;2023-04-25T15:50:20;8.57;;;1.75;;
59300;SDS011;45073;52.740;6.784;2023-04-25T15:52:50;7.47;;;1.58;;
59300;SDS011;45073;52.740;6.784;2023-04-25T15:55:16;9.23;;;1.50;;
59300;SDS011;45073;52.740;6.784;2023-04-25T15:57:43;11.10;;;1.90;;
59300;SDS011;45073;52.740;6.784;2023-04-25T16:00:09;11.40;;;2.40;;
59300;SDS011;45073;52.740;6.784;2023-04-25T16:02:40;10.65;;;1.58;;
59300;SDS011;45073;52.740;6.784;2023-04-25T16:05:07;8.60;;;1.35;;
59300;SDS011;45073;52.740;6.784;2023-04-25T16:07:35;8.68;;;1.55;;
59300;SDS011;45073;52.740;6.784;2023-04-25T16:10:02;8.98;;;1.63;;
59300;SDS011;45073;52.740;6.784;2023-04-25T16:12:28;10.57;;;1.92;;